KJDN

Jordan Airport

Jordan, Montana, USA
METAR KJDN 221348Z AUTO 29004KT M06/M08 A3025 RMK AO1 SLP279 T10611078
Observed Flight Rules
Oct-22 @ 13:48 UTC (44 minutes ago)
Wind
290° at 4 knots
Temperatures Readings
Current -6°C / 21°F
Dewpoint -8°C / 18°F
Humidity 86%
Altimeter 30.25" Hg
Pressure 1027.9 hPa
Elevation 801
METAR KJDN 221348Z AUTO 29004KT M06/M08 A3025 RMK AO1 SLP279 T10611078
Observed Flight Rules
Oct-22 @ 13:48 UTC
(44 minutes ago)
Wind
290° at 4 knots
Temperature Dewpoint
-6°C / 21°F -8°C / 18°F
Humidity Altimeter Pressure
86% 30.25" Hg 1027.9 hPa